Главная страница
METAR-TAF:

METAR-TAF

Аэропорты :

Harriman-and-West Airport

North Adams, Массачусетс, США

широта: 42-41-50N, долгота: 073-10-13W, высота над уровнем моря: 199 м

Текущие метеонаблюдения

Эта сводка был подготовлена 49 минут назад, в 21:52 UTC
Ветер 4 Узел переменных направлений
Температура 13°C
Влажность 35%
Давление 1027 hPa
Видимость: 16.1 км
ясное небо

METAR: KAQW 192152Z AUTO VRB04KT 10SM CLR 13/M02 A3034 RMK AO2 SLP279 T01331022

Время: 18:41 (22:41 UTC)


TAF: отсутствует

Метеонаблюдения и прогнозы для более 4000 аэропортов (сводки METAR и TAF).

Имеющиеся станции представлены на карте желтыми и красными точками.

Чтобы увидеть название станции, наведите на нее мышь.

Затем щелкните, чтобы увидеть метеонаблюдения и метеопрогнозы.

Управление картой: чтобы увеличить масштаб, щелкните зеленые кнопки с черным крестиком; чтобы уменьшить масштаб, щелкните зеленую кнопку с тире; для просмотра соседних карт щелкайте зеленые стрелки.


METAR-TAF: